createdAt,value
2023-02-19T00:00:01.291Z,12.70
2023-02-19T00:02:30.698Z,12.70
2023-02-19T00:04:59.803Z,12.70
2023-02-19T00:07:27.712Z,12.80
2023-02-19T00:09:56.007Z,12.70
2023-02-19T00:12:23.884Z,12.70
2023-02-19T00:14:51.830Z,12.90
2023-02-19T00:17:20.321Z,12.70
2023-02-19T00:19:49.529Z,12.70
2023-02-19T00:22:17.576Z,12.80
2023-02-19T00:24:47.331Z,12.70
2023-02-19T00:27:16.419Z,12.70
2023-02-19T00:29:44.240Z,12.70
2023-02-19T00:32:12.657Z,12.80
2023-02-19T00:34:40.878Z,12.80
2023-02-19T00:37:10.294Z,12.70
2023-02-19T00:39:38.150Z,12.80
2023-02-19T00:42:06.527Z,12.70
2023-02-19T00:44:34.596Z,12.80
2023-02-19T00:47:02.899Z,12.80
2023-02-19T00:49:32.133Z,12.80
2023-02-19T00:52:00.839Z,12.80
2023-02-19T00:54:31.360Z,12.90
2023-02-19T00:57:00.016Z,12.80
2023-02-19T00:59:28.256Z,12.90
2023-02-19T01:01:56.876Z,12.90
2023-02-19T01:04:25.125Z,12.90
2023-02-19T01:06:53.124Z,12.90
2023-02-19T01:09:21.380Z,12.90
2023-02-19T01:11:50.700Z,12.90
2023-02-19T01:14:18.733Z,13.00
2023-02-19T01:16:47.053Z,12.90
2023-02-19T01:19:15.031Z,13.00
2023-02-19T01:21:43.248Z,12.90
2023-02-19T01:24:11.909Z,13.00
2023-02-19T01:26:40.477Z,13.00
2023-02-19T01:29:10.179Z,13.00
2023-02-19T01:31:41.001Z,12.90
2023-02-19T01:34:11.659Z,12.90
2023-02-19T01:36:40.121Z,13.00
2023-02-19T01:39:09.166Z,13.00
2023-02-19T01:41:40.115Z,13.00
2023-02-19T01:44:48.265Z,13.00
2023-02-19T01:47:19.374Z,13.00
2023-02-19T01:49:50.866Z,13.00
2023-02-19T01:52:23.414Z,13.10
2023-02-19T01:54:52.510Z,13.00
2023-02-19T01:57:23.567Z,13.00
2023-02-19T01:59:58.060Z,13.00
2023-02-19T02:02:28.358Z,13.00
2023-02-19T02:04:57.567Z,13.00
2023-02-19T02:07:39.757Z,13.00
2023-02-19T02:10:23.854Z,13.00
2023-02-19T02:12:54.084Z,13.10
2023-02-19T02:15:26.993Z,13.10
2023-02-19T02:18:00.722Z,13.10
2023-02-19T02:20:38.399Z,13.10
2023-02-19T02:23:16.818Z,13.10
2023-02-19T02:26:09.697Z,13.10
2023-02-19T02:29:08.614Z,13.10
2023-02-19T02:31:43.378Z,13.10
2023-02-19T02:34:18.865Z,13.10
2023-02-19T02:36:50.893Z,13.10
2023-02-19T02:39:21.722Z,13.10
2023-02-19T02:42:12.818Z,13.10
2023-02-19T02:45:03.381Z,13.10
2023-02-19T02:47:44.834Z,13.10
2023-02-19T02:50:18.596Z,13.10
2023-02-19T02:53:07.686Z,13.10
2023-02-19T02:55:41.756Z,13.10
2023-02-19T02:58:11.879Z,13.10
2023-02-19T03:01:01.809Z,13.10
2023-02-19T03:03:33.510Z,13.10
2023-02-19T03:06:07.710Z,13.10
2023-02-19T03:08:41.112Z,13.10
2023-02-19T03:11:30.488Z,13.10
2023-02-19T03:14:20.361Z,13.10
2023-02-19T03:17:07.658Z,13.10
2023-02-19T03:19:43.726Z,13.10
2023-02-19T03:22:16.495Z,13.10
2023-02-19T03:25:06.745Z,13.10
2023-02-19T03:27:37.281Z,13.00
2023-02-19T03:30:11.660Z,13.00
2023-02-19T03:32:43.564Z,13.10
2023-02-19T03:35:18.011Z,13.00
2023-02-19T03:37:51.584Z,13.10
2023-02-19T03:40:19.959Z,13.10
2023-02-19T03:42:59.926Z,13.00
2023-02-19T03:45:37.308Z,13.00
2023-02-19T03:48:35.224Z,13.00
2023-02-19T03:51:21.640Z,13.00
2023-02-19T03:53:56.706Z,13.00
2023-02-19T03:56:29.998Z,13.10
2023-02-19T03:59:03.297Z,13.00
2023-02-19T04:01:39.145Z,13.00
2023-02-19T04:04:13.703Z,13.00
2023-02-19T04:06:45.448Z,13.00
2023-02-19T04:09:16.102Z,13.00
2023-02-19T04:11:50.050Z,13.00
2023-02-19T04:14:22.066Z,13.00
2023-02-19T04:16:56.079Z,13.00
2023-02-19T04:19:27.288Z,13.00
2023-02-19T04:21:59.717Z,13.00
2023-02-19T04:24:32.079Z,13.00
2023-02-19T04:27:00.629Z,13.00
2023-02-19T04:29:28.651Z,13.00
2023-02-19T04:31:57.516Z,13.00
2023-02-19T04:34:25.996Z,13.00
2023-02-19T04:36:54.066Z,13.00
2023-02-19T04:39:23.535Z,13.00
2023-02-19T04:41:51.799Z,13.00
2023-02-19T04:44:19.859Z,13.00
2023-02-19T04:46:48.008Z,13.00
2023-02-19T04:49:16.097Z,13.00
2023-02-19T04:51:44.700Z,13.00
2023-02-19T04:54:12.633Z,13.00
2023-02-19T04:56:42.441Z,13.00
2023-02-19T04:59:10.847Z,13.00
2023-02-19T05:01:39.000Z,13.00
2023-02-19T05:04:07.110Z,13.00
2023-02-19T05:06:35.522Z,13.00
2023-02-19T05:09:03.516Z,13.00
2023-02-19T05:11:31.749Z,13.00
2023-02-19T05:14:01.667Z,13.00
2023-02-19T05:16:29.668Z,13.10
2023-02-19T05:18:57.885Z,13.00
2023-02-19T05:21:26.063Z,13.00
2023-02-19T05:23:54.198Z,13.00
2023-02-19T05:26:23.886Z,13.00
2023-02-19T05:28:53.670Z,13.00
2023-02-19T05:31:23.478Z,13.00
2023-02-19T05:33:52.972Z,13.10
2023-02-19T05:36:23.106Z,13.00
2023-02-19T05:38:54.731Z,13.00
2023-02-19T05:41:25.127Z,12.90
2023-02-19T05:43:53.556Z,13.00
2023-02-19T05:46:25.893Z,12.90
2023-02-19T05:48:54.701Z,12.90
2023-02-19T05:51:24.241Z,12.90
2023-02-19T05:53:53.078Z,12.90
2023-02-19T05:56:32.695Z,12.90
2023-02-19T05:59:03.803Z,12.90
2023-02-19T06:01:33.423Z,12.90
2023-02-19T06:04:01.760Z,12.80
2023-02-19T06:06:30.114Z,12.90
2023-02-19T06:08:58.449Z,12.90
2023-02-19T06:11:26.851Z,12.90
2023-02-19T06:13:55.157Z,12.80
2023-02-19T06:16:24.588Z,12.80
2023-02-19T06:18:54.291Z,12.80
2023-02-19T06:21:22.634Z,12.80
2023-02-19T06:23:50.858Z,12.80
2023-02-19T06:26:20.680Z,12.80
2023-02-19T06:28:50.844Z,12.80
2023-02-19T06:31:20.215Z,12.80
2023-02-19T06:33:50.768Z,12.80
2023-02-19T06:36:22.156Z,12.80
2023-02-19T06:38:50.754Z,12.80
2023-02-19T06:41:19.441Z,12.70
2023-02-19T06:43:52.139Z,12.80
2023-02-19T06:46:20.503Z,12.80
2023-02-19T06:48:48.579Z,12.80
2023-02-19T06:51:19.614Z,12.70
2023-02-19T06:53:49.231Z,12.70
2023-02-19T06:56:26.479Z,12.70
2023-02-19T06:58:55.755Z,12.70
2023-02-19T07:01:24.743Z,12.70
2023-02-19T07:03:53.581Z,12.70
2023-02-19T07:06:22.320Z,12.70
2023-02-19T07:08:52.611Z,12.70
2023-02-19T07:11:20.613Z,12.70
2023-02-19T07:13:48.892Z,12.70
2023-02-19T07:16:18.139Z,12.70
2023-02-19T07:18:46.851Z,12.70
2023-02-19T07:21:17.196Z,12.70
2023-02-19T07:23:47.974Z,12.70
2023-02-19T07:26:19.948Z,12.70
2023-02-19T07:28:50.822Z,12.70
2023-02-19T07:31:21.522Z,12.70
2023-02-19T07:33:50.329Z,12.70
2023-02-19T07:36:20.052Z,12.70
2023-02-19T07:38:48.782Z,12.70
2023-02-19T07:41:18.164Z,12.70
2023-02-19T07:43:47.093Z,12.70
2023-02-19T07:46:15.745Z,12.70
2023-02-19T07:48:47.020Z,12.70
2023-02-19T07:51:18.888Z,12.70
2023-02-19T07:53:47.789Z,12.70
2023-02-19T07:56:15.917Z,12.70
2023-02-19T07:58:46.335Z,12.70
2023-02-19T08:01:17.460Z,12.70
2023-02-19T08:03:45.668Z,12.70
2023-02-19T08:06:14.102Z,12.70
2023-02-19T08:08:42.097Z,12.70
2023-02-19T08:11:28.951Z,12.70
2023-02-19T08:13:58.333Z,12.70
2023-02-19T08:16:42.217Z,12.70
2023-02-19T08:19:11.225Z,12.70
2023-02-19T08:21:39.257Z,12.70
2023-02-19T08:24:07.870Z,12.70
2023-02-19T08:26:36.428Z,12.70
2023-02-19T08:29:06.832Z,12.70
2023-02-19T08:31:36.100Z,12.80
2023-02-19T08:34:04.385Z,12.80
2023-02-19T08:36:32.546Z,12.80
2023-02-19T08:39:00.733Z,12.80
2023-02-19T08:41:28.987Z,12.80
2023-02-19T08:43:57.278Z,12.80
2023-02-19T08:46:26.703Z,12.80
2023-02-19T08:48:54.991Z,12.90
2023-02-19T08:51:23.045Z,12.80
2023-02-19T08:53:51.420Z,12.80
2023-02-19T08:56:21.724Z,12.80
2023-02-19T08:58:49.723Z,12.80
2023-02-19T09:01:19.252Z,12.80
2023-02-19T09:03:49.115Z,12.80
2023-02-19T09:06:18.949Z,12.80
2023-02-19T09:08:47.437Z,12.80
2023-02-19T09:11:16.171Z,12.80
2023-02-19T09:13:45.168Z,12.80
2023-02-19T09:16:13.525Z,12.80
2023-02-19T09:18:41.490Z,12.90
2023-02-19T09:21:11.442Z,12.80
2023-02-19T09:23:40.000Z,12.80
2023-02-19T09:26:10.249Z,12.80
2023-02-19T09:28:41.555Z,12.90
2023-02-19T09:31:12.928Z,12.90
2023-02-19T09:33:45.195Z,12.90
2023-02-19T09:36:16.268Z,13.00
2023-02-19T09:38:44.429Z,13.00
2023-02-19T09:41:18.887Z,13.10
2023-02-19T09:43:47.437Z,13.10
2023-02-19T09:46:25.859Z,13.20
2023-02-19T09:48:56.312Z,13.20
2023-02-19T09:51:28.530Z,13.20
2023-02-19T09:53:58.682Z,13.20
2023-02-19T09:56:28.687Z,13.20
2023-02-19T09:58:59.735Z,13.10
2023-02-19T10:01:32.304Z,13.20
2023-02-19T10:04:00.825Z,13.10
2023-02-19T10:06:30.670Z,13.10
2023-02-19T10:09:15.596Z,13.10
2023-02-19T10:11:43.896Z,13.10
2023-02-19T10:14:18.290Z,13.10
2023-02-19T10:16:49.402Z,13.10
2023-02-19T10:19:18.216Z,13.10
2023-02-19T10:21:48.280Z,13.10
2023-02-19T10:24:22.573Z,13.10
2023-02-19T10:26:51.500Z,13.10
2023-02-19T10:29:21.614Z,13.10
2023-02-19T10:31:50.346Z,13.10
2023-02-19T10:34:22.737Z,13.10
2023-02-19T10:36:53.468Z,13.20
2023-02-19T10:39:42.304Z,13.20
2023-02-19T10:42:19.469Z,13.20
2023-02-19T10:44:50.938Z,13.30
2023-02-19T10:47:22.619Z,13.30
2023-02-19T10:49:52.343Z,13.30
2023-02-19T10:52:26.678Z,13.30
2023-02-19T10:57:50.596Z,13.30
2023-02-19T11:00:26.906Z,13.30
2023-02-19T11:03:15.348Z,13.30
2023-02-19T11:05:56.092Z,13.30
2023-02-19T11:08:26.107Z,13.30
2023-02-19T11:10:54.335Z,13.30
2023-02-19T11:13:30.480Z,13.30
2023-02-19T11:15:59.688Z,13.30
2023-02-19T11:18:30.152Z,13.30
2023-02-19T11:21:00.372Z,13.30
2023-02-19T11:23:32.105Z,13.30
2023-02-19T11:26:03.210Z,13.30
2023-02-19T11:28:37.095Z,13.40
2023-02-19T11:31:22.759Z,13.40
2023-02-19T11:33:56.963Z,13.50
2023-02-19T11:36:31.036Z,13.60
2023-02-19T11:39:04.070Z,13.60
2023-02-19T11:41:55.864Z,13.60
2023-02-19T11:44:36.473Z,13.60
2023-02-19T11:47:27.167Z,13.60
2023-02-19T11:50:04.168Z,13.60
2023-02-19T11:52:37.495Z,13.60
2023-02-19T11:55:16.067Z,13.60
2023-02-19T11:57:48.109Z,13.60
2023-02-19T12:00:27.775Z,13.60
2023-02-19T12:03:35.689Z,13.50
2023-02-19T12:06:23.984Z,13.50
2023-02-19T12:09:13.947Z,13.60
2023-02-19T12:12:07.532Z,13.50
2023-02-19T12:15:23.186Z,13.50
2023-02-19T12:18:19.201Z,13.50
2023-02-19T12:20:55.488Z,13.50
2023-02-19T12:23:51.134Z,13.50
2023-02-19T12:26:24.043Z,13.50
2023-02-19T12:29:27.489Z,13.50
2023-02-19T12:32:35.924Z,13.50
2023-02-19T12:35:24.608Z,13.50
2023-02-19T12:37:59.152Z,13.50
2023-02-19T12:40:39.659Z,13.60
2023-02-19T12:43:14.832Z,13.60
2023-02-19T12:45:50.606Z,13.60
2023-02-19T12:48:26.738Z,13.60
2023-02-19T12:50:58.791Z,13.60
2023-02-19T12:53:36.368Z,13.70
2023-02-19T12:56:12.460Z,13.80
2023-02-19T12:58:46.547Z,13.90
2023-02-19T13:01:22.293Z,13.90
2023-02-19T13:03:59.706Z,14.00
2023-02-19T13:06:37.576Z,14.10
2023-02-19T13:09:12.693Z,14.20
2023-02-19T13:11:45.360Z,14.20
2023-02-19T13:14:22.687Z,14.10
2023-02-19T13:16:56.970Z,14.10
2023-02-19T13:19:25.359Z,14.00
2023-02-19T13:22:18.158Z,13.90
2023-02-19T13:24:48.019Z,13.90
2023-02-19T13:27:37.532Z,13.80
2023-02-19T13:30:23.974Z,13.80
2023-02-19T13:33:04.476Z,13.80
2023-02-19T13:36:06.306Z,13.70
2023-02-19T13:38:38.500Z,13.80
2023-02-19T13:41:07.730Z,13.80
2023-02-19T13:43:38.913Z,13.80
2023-02-19T13:46:10.534Z,13.80
2023-02-19T13:48:42.250Z,13.70
2023-02-19T13:51:39.834Z,13.70
2023-02-19T13:54:21.023Z,13.70
2023-02-19T13:56:50.131Z,13.70
2023-02-19T13:59:36.918Z,13.70
2023-02-19T14:02:33.983Z,13.70
2023-02-19T14:05:07.492Z,13.70
2023-02-19T14:07:39.240Z,13.70
2023-02-19T14:10:13.664Z,13.70
2023-02-19T14:12:41.913Z,13.80
2023-02-19T14:15:43.917Z,13.80
2023-02-19T14:18:44.200Z,13.80
2023-02-19T14:21:26.028Z,13.80
2023-02-19T14:23:56.833Z,13.80
2023-02-19T14:26:26.692Z,13.90
2023-02-19T14:28:55.441Z,13.80
2023-02-19T14:31:30.316Z,13.80
2023-02-19T14:34:00.946Z,13.90
2023-02-19T14:36:53.820Z,13.80
2023-02-19T14:39:25.797Z,13.80
2023-02-19T14:41:57.470Z,13.80
2023-02-19T14:44:28.867Z,13.70
2023-02-19T14:47:00.672Z,13.80
2023-02-19T14:49:34.612Z,13.70
2023-02-19T14:52:07.505Z,13.70
2023-02-19T14:54:42.445Z,13.60
2023-02-19T14:57:17.002Z,13.60
2023-02-19T14:59:55.415Z,13.50
2023-02-19T15:02:25.919Z,13.50
2023-02-19T15:04:55.219Z,13.50
2023-02-19T15:07:29.175Z,13.40
2023-02-19T15:10:03.657Z,13.40
2023-02-19T15:12:36.193Z,13.30
2023-02-19T15:15:07.633Z,13.30
2023-02-19T15:17:39.702Z,13.20
2023-02-19T15:20:13.101Z,13.30
2023-02-19T15:22:43.097Z,13.20
2023-02-19T15:25:18.768Z,13.20
2023-02-19T15:27:46.991Z,13.30
2023-02-19T15:30:28.526Z,13.20
2023-02-19T15:32:58.147Z,13.20
2023-02-19T15:35:27.552Z,13.20
2023-02-19T15:37:57.758Z,13.10
2023-02-19T15:40:30.160Z,13.10
2023-02-19T15:42:59.578Z,13.10
2023-02-19T15:45:31.008Z,13.00
2023-02-19T15:48:03.885Z,13.00
2023-02-19T15:50:34.526Z,13.00
2023-02-19T15:53:09.286Z,12.90
2023-02-19T15:55:42.227Z,12.90
2023-02-19T15:58:17.468Z,12.90
2023-02-19T16:00:50.187Z,12.90
2023-02-19T16:03:20.855Z,12.80
2023-02-19T16:06:00.238Z,12.80
2023-02-19T16:08:33.026Z,12.80
2023-02-19T16:11:02.793Z,12.80
2023-02-19T16:13:32.950Z,12.70
2023-02-19T16:16:07.452Z,12.80
2023-02-19T16:18:36.082Z,12.70
2023-02-19T16:21:09.352Z,12.70
2023-02-19T16:23:47.638Z,12.70
2023-02-19T16:26:16.230Z,12.60
2023-02-19T16:28:47.204Z,12.60
2023-02-19T16:31:15.744Z,12.60
2023-02-19T16:33:46.517Z,12.60
2023-02-19T16:36:37.807Z,12.70
2023-02-19T16:39:18.073Z,12.60
2023-02-19T16:42:20.321Z,12.60
2023-02-19T16:44:49.375Z,12.60
2023-02-19T16:47:33.129Z,12.50
2023-02-19T16:50:08.336Z,12.50
2023-02-19T16:52:39.169Z,12.50
2023-02-19T16:55:14.802Z,12.50
2023-02-19T16:57:43.348Z,12.50
2023-02-19T17:00:18.454Z,12.40
2023-02-19T17:02:48.567Z,12.40
2023-02-19T17:05:17.366Z,12.40
2023-02-19T17:07:45.349Z,12.40
2023-02-19T17:10:18.308Z,12.40
2023-02-19T17:12:46.317Z,12.40
2023-02-19T17:15:14.450Z,12.40
2023-02-19T17:17:42.846Z,12.40
2023-02-19T17:20:22.790Z,12.40
2023-02-19T17:22:51.204Z,12.30
2023-02-19T17:25:21.330Z,12.30
2023-02-19T17:27:49.641Z,12.30
2023-02-19T17:30:23.386Z,12.30
2023-02-19T17:32:52.166Z,12.30
2023-02-19T17:35:20.261Z,12.30
2023-02-19T17:37:48.462Z,12.30
2023-02-19T17:40:32.171Z,12.30
2023-02-19T17:43:02.756Z,12.30
2023-02-19T17:45:30.844Z,12.30
2023-02-19T17:47:59.395Z,12.30
2023-02-19T17:50:29.568Z,12.30
2023-02-19T17:52:57.655Z,12.30
2023-02-19T17:55:27.995Z,12.30
2023-02-19T17:57:56.137Z,12.30
2023-02-19T18:00:26.101Z,12.30
2023-02-19T18:02:54.789Z,12.30
2023-02-19T18:05:22.980Z,12.30
2023-02-19T18:07:51.806Z,12.20
2023-02-19T18:10:21.704Z,12.20
2023-02-19T18:12:51.429Z,12.20
2023-02-19T18:15:22.352Z,12.20
2023-02-19T18:17:51.019Z,12.30
2023-02-19T18:20:22.726Z,12.20
2023-02-19T18:22:51.404Z,12.20
2023-02-19T18:25:20.518Z,12.30
2023-02-19T18:27:51.049Z,12.20
2023-02-19T18:30:21.137Z,12.20
2023-02-19T18:32:49.509Z,12.20
2023-02-19T18:35:19.086Z,12.20
2023-02-19T18:37:51.552Z,12.20
2023-02-19T18:40:21.159Z,12.20
2023-02-19T18:42:50.553Z,12.20
2023-02-19T18:45:19.217Z,12.20
2023-02-19T18:47:48.505Z,12.20
2023-02-19T18:50:17.874Z,12.10
2023-02-19T18:52:46.239Z,12.20
2023-02-19T18:55:14.555Z,12.10
2023-02-19T18:57:42.769Z,12.10
2023-02-19T19:00:18.244Z,12.10
2023-02-19T19:02:49.810Z,12.10
2023-02-19T19:05:23.311Z,12.10
2023-02-19T19:07:52.512Z,12.10
2023-02-19T19:10:21.264Z,12.00
2023-02-19T19:12:49.541Z,12.00
2023-02-19T19:15:19.855Z,12.00
2023-02-19T19:17:49.519Z,12.00
2023-02-19T19:20:19.537Z,12.00
2023-02-19T19:22:49.911Z,11.90
2023-02-19T19:25:18.342Z,11.90
2023-02-19T19:27:46.977Z,11.90
2023-02-19T19:30:16.037Z,11.90
2023-02-19T19:32:45.580Z,11.80
2023-02-19T19:35:13.874Z,11.80
2023-02-19T19:37:42.298Z,11.80
2023-02-19T19:40:12.302Z,11.80
2023-02-19T19:42:40.707Z,11.70
2023-02-19T19:45:11.846Z,11.70
2023-02-19T19:47:40.547Z,11.70
2023-02-19T19:50:12.111Z,11.70
2023-02-19T19:52:40.374Z,11.70
2023-02-19T19:55:08.884Z,11.70
2023-02-19T19:57:38.492Z,11.70
2023-02-19T20:00:09.016Z,11.70
2023-02-19T20:02:43.337Z,11.60
2023-02-19T20:05:13.362Z,11.70
2023-02-19T20:07:41.799Z,11.60
2023-02-19T20:10:11.615Z,11.60
2023-02-19T20:12:40.693Z,11.60
2023-02-19T20:15:10.229Z,11.60
2023-02-19T20:17:39.253Z,11.60
2023-02-19T20:20:09.085Z,11.60
2023-02-19T20:22:39.510Z,11.60
2023-02-19T20:25:08.169Z,11.50
2023-02-19T20:27:36.228Z,11.50
2023-02-19T20:30:05.035Z,11.50
2023-02-19T20:32:33.301Z,11.50
2023-02-19T20:35:01.984Z,11.50
2023-02-19T20:37:30.513Z,11.50
2023-02-19T20:40:00.009Z,11.50
2023-02-19T20:42:28.703Z,11.50
2023-02-19T20:44:57.383Z,11.50
2023-02-19T20:47:25.664Z,11.40
2023-02-19T20:49:53.699Z,11.40
2023-02-19T20:52:24.555Z,11.40
2023-02-19T20:54:55.473Z,11.40
2023-02-19T20:57:25.988Z,11.40
2023-02-19T20:59:54.135Z,11.40
2023-02-19T21:02:27.925Z,11.40
2023-02-19T21:04:57.413Z,11.40
2023-02-19T21:07:26.378Z,11.30
2023-02-19T21:09:54.810Z,11.30
2023-02-19T21:12:24.664Z,11.30
2023-02-19T21:14:53.047Z,11.30
2023-02-19T21:17:21.552Z,11.30
2023-02-19T21:19:50.357Z,11.30
2023-02-19T21:22:18.405Z,11.30
2023-02-19T21:24:49.706Z,11.30
2023-02-19T21:27:17.678Z,11.30
2023-02-19T21:29:47.644Z,11.30
2023-02-19T21:32:16.140Z,11.30
2023-02-19T21:34:44.388Z,11.30
2023-02-19T21:37:15.008Z,11.30
2023-02-19T21:39:43.456Z,11.30
2023-02-19T21:42:11.869Z,11.40
2023-02-19T21:44:41.665Z,11.20
2023-02-19T21:47:12.818Z,11.20
2023-02-19T21:49:41.889Z,11.30
2023-02-19T21:52:10.238Z,11.20
2023-02-19T21:54:38.270Z,11.20
2023-02-19T21:57:06.260Z,11.20
2023-02-19T21:59:34.475Z,11.20
2023-02-19T22:02:02.482Z,11.20
2023-02-19T22:04:31.828Z,11.20
2023-02-19T22:07:00.137Z,11.20
2023-02-19T22:09:28.178Z,11.20
2023-02-19T22:11:56.649Z,11.20
2023-02-19T22:14:24.662Z,11.10
2023-02-19T22:16:53.028Z,11.10
2023-02-19T22:19:21.217Z,11.10
2023-02-19T22:21:50.667Z,11.10
2023-02-19T22:24:21.517Z,11.10
2023-02-19T22:26:51.401Z,11.10
2023-02-19T22:29:19.755Z,11.10
2023-02-19T22:31:47.921Z,11.10
2023-02-19T22:34:16.884Z,11.10
2023-02-19T22:36:45.789Z,11.00
2023-02-19T22:39:22.704Z,11.00
2023-02-19T22:41:51.349Z,11.00
2023-02-19T22:44:20.055Z,11.10
2023-02-19T22:46:50.907Z,10.90
2023-02-19T22:49:20.075Z,10.90
2023-02-19T22:51:53.314Z,10.90
2023-02-19T22:54:26.845Z,10.90
2023-02-19T22:56:55.288Z,10.80
2023-02-19T22:59:23.927Z,10.90
2023-02-19T23:01:52.406Z,10.80
2023-02-19T23:04:21.734Z,10.80
2023-02-19T23:06:50.287Z,10.80
2023-02-19T23:09:23.675Z,10.80
2023-02-19T23:11:52.568Z,10.80
2023-02-19T23:14:22.089Z,10.70
2023-02-19T23:16:50.216Z,10.70
2023-02-19T23:19:18.545Z,10.70
2023-02-19T23:21:47.018Z,10.70
2023-02-19T23:24:16.427Z,10.70
2023-02-19T23:26:46.909Z,10.70
2023-02-19T23:29:17.739Z,10.70
2023-02-19T23:31:46.186Z,10.70
2023-02-19T23:34:15.424Z,10.70
2023-02-19T23:36:44.366Z,10.60
2023-02-19T23:39:14.506Z,10.60
2023-02-19T23:41:48.647Z,10.60
2023-02-19T23:44:17.110Z,10.60
2023-02-19T23:46:45.422Z,10.70
2023-02-19T23:49:14.281Z,10.60
2023-02-19T23:51:42.542Z,10.60
2023-02-19T23:54:11.147Z,10.60
2023-02-19T23:56:39.323Z,10.60
2023-02-19T23:59:08.858Z,10.60
